sensor_id;sensor_type;location;lat;lon;timestamp;P1;durP1;ratioP1;P2;durP2;ratioP2
70970;SDS011;58632;51.718;19.446;2023-07-20T00:02:13;3.60;;;1.80;;
70970;SDS011;58632;51.718;19.446;2023-07-20T00:04:39;7.50;;;2.30;;
70970;SDS011;58632;51.718;19.446;2023-07-20T00:07:04;8.30;;;1.90;;
70970;SDS011;58632;51.718;19.446;2023-07-20T00:09:30;6.70;;;1.90;;
70970;SDS011;58632;51.718;19.446;2023-07-20T00:11:56;3.90;;;1.90;;
70970;SDS011;58632;51.718;19.446;2023-07-20T00:14:25;3.60;;;1.90;;
70970;SDS011;58632;51.718;19.446;2023-07-20T00:16:50;6.20;;;1.90;;
70970;SDS011;58632;51.718;19.446;2023-07-20T00:19:24;2.60;;;1.50;;
70970;SDS011;58632;51.718;19.446;2023-07-20T00:21:51;4.20;;;1.70;;
70970;SDS011;58632;51.718;19.446;2023-07-20T00:24:18;9.20;;;3.10;;
70970;SDS011;58632;51.718;19.446;2023-07-20T00:26:44;10.70;;;2.00;;
70970;SDS011;58632;51.718;19.446;2023-07-20T00:29:10;3.60;;;2.00;;
70970;SDS011;58632;51.718;19.446;2023-07-20T00:31:36;5.70;;;1.90;;
70970;SDS011;58632;51.718;19.446;2023-07-20T00:34:05;4.20;;;2.00;;
70970;SDS011;58632;51.718;19.446;2023-07-20T00:36:31;4.50;;;2.30;;
70970;SDS011;58632;51.718;19.446;2023-07-20T00:38:57;4.60;;;2.40;;
70970;SDS011;58632;51.718;19.446;2023-07-20T00:41:22;3.10;;;2.00;;
70970;SDS011;58632;51.718;19.446;2023-07-20T00:43:55;3.50;;;1.90;;
70970;SDS011;58632;51.718;19.446;2023-07-20T00:46:25;7.20;;;2.20;;
70970;SDS011;58632;51.718;19.446;2023-07-20T00:48:51;4.80;;;2.50;;
70970;SDS011;58632;51.718;19.446;2023-07-20T00:51:17;7.80;;;2.40;;
70970;SDS011;58632;51.718;19.446;2023-07-20T00:53:43;5.70;;;2.10;;
70970;SDS011;58632;51.718;19.446;2023-07-20T00:56:09;3.10;;;1.90;;
70970;SDS011;58632;51.718;19.446;2023-07-20T00:58:38;6.90;;;2.40;;
70970;SDS011;58632;51.718;19.446;2023-07-20T01:01:06;4.90;;;2.10;;
70970;SDS011;58632;51.718;19.446;2023-07-20T01:03:32;5.20;;;2.20;;
70970;SDS011;58632;51.718;19.446;2023-07-20T01:14:44;3.60;;;1.90;;
70970;SDS011;58632;51.718;19.446;2023-07-20T01:17:10;4.80;;;2.00;;
70970;SDS011;58632;51.718;19.446;2023-07-20T01:19:37;4.60;;;2.40;;
70970;SDS011;58632;51.718;19.446;2023-07-20T01:27:59;3.80;;;1.90;;
70970;SDS011;58632;51.718;19.446;2023-07-20T01:33:46;5.00;;;2.20;;
70970;SDS011;58632;51.718;19.446;2023-07-20T01:36:14;4.50;;;2.10;;
70970;SDS011;58632;51.718;19.446;2023-07-20T01:38:42;3.20;;;2.00;;
70970;SDS011;58632;51.718;19.446;2023-07-20T01:41:10;4.20;;;1.90;;
70970;SDS011;58632;51.718;19.446;2023-07-20T01:43:36;5.00;;;2.00;;
70970;SDS011;58632;51.718;19.446;2023-07-20T01:46:04;3.00;;;2.00;;
70970;SDS011;58632;51.718;19.446;2023-07-20T01:48:29;4.10;;;2.20;;
70970;SDS011;58632;51.718;19.446;2023-07-20T01:50:59;4.60;;;2.20;;
70970;SDS011;58632;51.718;19.446;2023-07-20T01:53:25;3.50;;;2.20;;
70970;SDS011;58632;51.718;19.446;2023-07-20T01:55:54;5.10;;;2.30;;
70970;SDS011;58632;51.718;19.446;2023-07-20T01:58:21;4.40;;;2.20;;
70970;SDS011;58632;51.718;19.446;2023-07-20T02:00:50;5.40;;;2.30;;
70970;SDS011;58632;51.718;19.446;2023-07-20T02:03:16;4.80;;;2.10;;
70970;SDS011;58632;51.718;19.446;2023-07-20T02:05:42;5.60;;;2.30;;
70970;SDS011;58632;51.718;19.446;2023-07-20T02:08:10;6.00;;;2.70;;
70970;SDS011;58632;51.718;19.446;2023-07-20T02:10:36;6.40;;;2.50;;
70970;SDS011;58632;51.718;19.446;2023-07-20T02:13:02;5.80;;;2.20;;
70970;SDS011;58632;51.718;19.446;2023-07-20T02:15:27;5.50;;;2.90;;
70970;SDS011;58632;51.718;19.446;2023-07-20T02:17:54;5.40;;;2.40;;
70970;SDS011;58632;51.718;19.446;2023-07-20T02:20:20;6.60;;;2.80;;
70970;SDS011;58632;51.718;19.446;2023-07-20T02:22:46;4.20;;;2.30;;
70970;SDS011;58632;51.718;19.446;2023-07-20T02:25:12;6.90;;;2.80;;
70970;SDS011;58632;51.718;19.446;2023-07-20T02:27:38;6.50;;;2.40;;
70970;SDS011;58632;51.718;19.446;2023-07-20T02:30:05;4.70;;;2.40;;
70970;SDS011;58632;51.718;19.446;2023-07-20T02:32:31;6.30;;;2.50;;
70970;SDS011;58632;51.718;19.446;2023-07-20T02:34:57;7.30;;;2.60;;
70970;SDS011;58632;51.718;19.446;2023-07-20T02:39:54;6.10;;;2.70;;
70970;SDS011;58632;51.718;19.446;2023-07-20T02:42:21;4.80;;;2.60;;
70970;SDS011;58632;51.718;19.446;2023-07-20T02:44:51;7.20;;;3.10;;
70970;SDS011;58632;51.718;19.446;2023-07-20T02:47:16;6.20;;;2.60;;
70970;SDS011;58632;51.718;19.446;2023-07-20T02:49:42;6.30;;;3.10;;
70970;SDS011;58632;51.718;19.446;2023-07-20T02:54:34;8.80;;;2.70;;
70970;SDS011;58632;51.718;19.446;2023-07-20T02:57:02;6.90;;;3.00;;
70970;SDS011;58632;51.718;19.446;2023-07-20T03:01:54;6.70;;;3.30;;
70970;SDS011;58632;51.718;19.446;2023-07-20T03:04:20;6.10;;;3.00;;
70970;SDS011;58632;51.718;19.446;2023-07-20T03:06:47;7.70;;;3.30;;
70970;SDS011;58632;51.718;19.446;2023-07-20T03:09:12;5.70;;;3.60;;
70970;SDS011;58632;51.718;19.446;2023-07-20T03:11:39;6.00;;;3.30;;
70970;SDS011;58632;51.718;19.446;2023-07-20T03:14:04;6.00;;;3.30;;
70970;SDS011;58632;51.718;19.446;2023-07-20T03:16:30;5.00;;;3.20;;
70970;SDS011;58632;51.718;19.446;2023-07-20T03:18:59;8.10;;;3.60;;
70970;SDS011;58632;51.718;19.446;2023-07-20T03:21:25;6.20;;;3.10;;
70970;SDS011;58632;51.718;19.446;2023-07-20T03:26:17;6.60;;;3.70;;
70970;SDS011;58632;51.718;19.446;2023-07-20T03:28:45;7.70;;;3.20;;
70970;SDS011;58632;51.718;19.446;2023-07-20T03:31:11;5.80;;;3.40;;
70970;SDS011;58632;51.718;19.446;2023-07-20T03:33:36;5.30;;;3.40;;
70970;SDS011;58632;51.718;19.446;2023-07-20T03:36:02;6.40;;;3.30;;
70970;SDS011;58632;51.718;19.446;2023-07-20T03:38:28;5.30;;;3.00;;
70970;SDS011;58632;51.718;19.446;2023-07-20T03:40:54;5.90;;;3.40;;
70970;SDS011;58632;51.718;19.446;2023-07-20T03:43:25;5.70;;;3.60;;
70970;SDS011;58632;51.718;19.446;2023-07-20T03:45:52;5.50;;;3.20;;
70970;SDS011;58632;51.718;19.446;2023-07-20T03:48:21;6.90;;;3.10;;
70970;SDS011;58632;51.718;19.446;2023-07-20T03:50:50;5.00;;;3.30;;
70970;SDS011;58632;51.718;19.446;2023-07-20T03:53:16;6.90;;;3.40;;
70970;SDS011;58632;51.718;19.446;2023-07-20T03:55:46;5.10;;;3.40;;
70970;SDS011;58632;51.718;19.446;2023-07-20T03:58:13;7.20;;;3.30;;
70970;SDS011;58632;51.718;19.446;2023-07-20T04:00:42;5.90;;;3.30;;
70970;SDS011;58632;51.718;19.446;2023-07-20T04:03:10;4.60;;;2.90;;
70970;SDS011;58632;51.718;19.446;2023-07-20T04:05:35;6.10;;;3.40;;
70970;SDS011;58632;51.718;19.446;2023-07-20T04:08:01;5.00;;;3.00;;
70970;SDS011;58632;51.718;19.446;2023-07-20T04:10:27;6.50;;;3.30;;
70970;SDS011;58632;51.718;19.446;2023-07-20T04:12:55;4.80;;;3.10;;
70970;SDS011;58632;51.718;19.446;2023-07-20T04:15:21;7.20;;;3.10;;
70970;SDS011;58632;51.718;19.446;2023-07-20T04:17:46;5.50;;;3.10;;
70970;SDS011;58632;51.718;19.446;2023-07-20T04:20:12;6.40;;;2.80;;
70970;SDS011;58632;51.718;19.446;2023-07-20T04:22:38;5.80;;;3.10;;
70970;SDS011;58632;51.718;19.446;2023-07-20T04:25:04;5.00;;;3.40;;
70970;SDS011;58632;51.718;19.446;2023-07-20T04:27:30;4.80;;;2.70;;
70970;SDS011;58632;51.718;19.446;2023-07-20T04:29:57;5.70;;;3.40;;
70970;SDS011;58632;51.718;19.446;2023-07-20T04:32:25;5.20;;;3.00;;
70970;SDS011;58632;51.718;19.446;2023-07-20T04:34:51;6.20;;;3.10;;
70970;SDS011;58632;51.718;19.446;2023-07-20T04:37:16;6.70;;;2.70;;
70970;SDS011;58632;51.718;19.446;2023-07-20T04:39:42;4.10;;;2.70;;
70970;SDS011;58632;51.718;19.446;2023-07-20T04:42:08;4.20;;;2.70;;
70970;SDS011;58632;51.718;19.446;2023-07-20T04:44:34;5.10;;;3.00;;
70970;SDS011;58632;51.718;19.446;2023-07-20T04:46:59;7.00;;;3.40;;
70970;SDS011;58632;51.718;19.446;2023-07-20T04:49:25;7.10;;;2.90;;
70970;SDS011;58632;51.718;19.446;2023-07-20T04:51:51;5.20;;;2.90;;
70970;SDS011;58632;51.718;19.446;2023-07-20T04:54:17;5.80;;;2.90;;
70970;SDS011;58632;51.718;19.446;2023-07-20T04:59:09;6.10;;;2.70;;
70970;SDS011;58632;51.718;19.446;2023-07-20T05:01:35;5.00;;;3.30;;
70970;SDS011;58632;51.718;19.446;2023-07-20T05:04:01;5.30;;;2.80;;
70970;SDS011;58632;51.718;19.446;2023-07-20T05:08:52;7.00;;;3.10;;
70970;SDS011;58632;51.718;19.446;2023-07-20T05:11:18;5.00;;;3.20;;
70970;SDS011;58632;51.718;19.446;2023-07-20T05:13:45;6.00;;;3.60;;
70970;SDS011;58632;51.718;19.446;2023-07-20T05:16:11;6.10;;;3.90;;
70970;SDS011;58632;51.718;19.446;2023-07-20T05:18:36;5.60;;;3.50;;
70970;SDS011;58632;51.718;19.446;2023-07-20T05:21:02;7.70;;;3.80;;
70970;SDS011;58632;51.718;19.446;2023-07-20T05:23:28;7.10;;;4.20;;
70970;SDS011;58632;51.718;19.446;2023-07-20T05:25:57;9.20;;;4.60;;
70970;SDS011;58632;51.718;19.446;2023-07-20T05:28:24;5.80;;;3.20;;
70970;SDS011;58632;51.718;19.446;2023-07-20T05:31:13;7.60;;;3.60;;
70970;SDS011;58632;51.718;19.446;2023-07-20T05:33:39;5.60;;;2.80;;
70970;SDS011;58632;51.718;19.446;2023-07-20T05:36:08;4.00;;;2.70;;
70970;SDS011;58632;51.718;19.446;2023-07-20T05:38:34;5.80;;;3.50;;
70970;SDS011;58632;51.718;19.446;2023-07-20T05:41:00;8.40;;;3.30;;
70970;SDS011;58632;51.718;19.446;2023-07-20T05:43:29;6.60;;;3.00;;
70970;SDS011;58632;51.718;19.446;2023-07-20T05:45:55;4.50;;;3.20;;
70970;SDS011;58632;51.718;19.446;2023-07-20T05:48:20;6.40;;;3.20;;
70970;SDS011;58632;51.718;19.446;2023-07-20T05:50:46;6.80;;;2.80;;
70970;SDS011;58632;51.718;19.446;2023-07-20T05:53:11;7.40;;;3.50;;
70970;SDS011;58632;51.718;19.446;2023-07-20T05:55:37;5.40;;;3.30;;
70970;SDS011;58632;51.718;19.446;2023-07-20T05:58:08;6.60;;;2.90;;
70970;SDS011;58632;51.718;19.446;2023-07-20T06:00:35;8.50;;;2.80;;
70970;SDS011;58632;51.718;19.446;2023-07-20T06:03:01;10.00;;;3.10;;
70970;SDS011;58632;51.718;19.446;2023-07-20T06:05:27;5.00;;;3.50;;
70970;SDS011;58632;51.718;19.446;2023-07-20T06:07:52;5.40;;;3.30;;
70970;SDS011;58632;51.718;19.446;2023-07-20T06:10:19;9.20;;;3.60;;
70970;SDS011;58632;51.718;19.446;2023-07-20T06:12:47;7.50;;;3.00;;
70970;SDS011;58632;51.718;19.446;2023-07-20T06:15:26;7.30;;;3.10;;
70970;SDS011;58632;51.718;19.446;2023-07-20T06:18:03;7.70;;;3.10;;
70970;SDS011;58632;51.718;19.446;2023-07-20T06:20:31;7.70;;;3.60;;
70970;SDS011;58632;51.718;19.446;2023-07-20T06:22:57;5.60;;;3.00;;
70970;SDS011;58632;51.718;19.446;2023-07-20T06:25:23;5.40;;;3.20;;
70970;SDS011;58632;51.718;19.446;2023-07-20T06:27:49;8.50;;;3.30;;
70970;SDS011;58632;51.718;19.446;2023-07-20T06:30:16;5.60;;;3.50;;
70970;SDS011;58632;51.718;19.446;2023-07-20T06:32:42;5.60;;;3.10;;
70970;SDS011;58632;51.718;19.446;2023-07-20T06:35:08;5.90;;;3.10;;
70970;SDS011;58632;51.718;19.446;2023-07-20T06:37:36;5.40;;;3.50;;
70970;SDS011;58632;51.718;19.446;2023-07-20T06:40:02;7.80;;;3.60;;
70970;SDS011;58632;51.718;19.446;2023-07-20T06:42:29;5.40;;;3.10;;
70970;SDS011;58632;51.718;19.446;2023-07-20T06:44:56;7.00;;;3.00;;
70970;SDS011;58632;51.718;19.446;2023-07-20T06:47:25;4.60;;;3.20;;
70970;SDS011;58632;51.718;19.446;2023-07-20T06:49:51;6.40;;;3.70;;
70970;SDS011;58632;51.718;19.446;2023-07-20T06:52:17;6.30;;;3.60;;
70970;SDS011;58632;51.718;19.446;2023-07-20T06:54:42;5.60;;;3.30;;
70970;SDS011;58632;51.718;19.446;2023-07-20T06:57:08;8.80;;;3.90;;
70970;SDS011;58632;51.718;19.446;2023-07-20T06:59:33;6.60;;;4.00;;
70970;SDS011;58632;51.718;19.446;2023-07-20T07:01:59;8.00;;;3.70;;
70970;SDS011;58632;51.718;19.446;2023-07-20T07:04:25;7.60;;;3.40;;
70970;SDS011;58632;51.718;19.446;2023-07-20T07:06:50;7.50;;;3.90;;
70970;SDS011;58632;51.718;19.446;2023-07-20T07:09:16;7.50;;;3.70;;
70970;SDS011;58632;51.718;19.446;2023-07-20T07:11:43;6.80;;;3.40;;
70970;SDS011;58632;51.718;19.446;2023-07-20T07:14:09;7.10;;;3.60;;
70970;SDS011;58632;51.718;19.446;2023-07-20T07:16:35;8.20;;;3.90;;
70970;SDS011;58632;51.718;19.446;2023-07-20T07:19:00;8.80;;;4.10;;
70970;SDS011;58632;51.718;19.446;2023-07-20T07:21:26;6.90;;;3.80;;
70970;SDS011;58632;51.718;19.446;2023-07-20T07:23:52;6.80;;;3.60;;
70970;SDS011;58632;51.718;19.446;2023-07-20T07:26:22;5.80;;;3.50;;
70970;SDS011;58632;51.718;19.446;2023-07-20T07:28:49;5.70;;;3.40;;
70970;SDS011;58632;51.718;19.446;2023-07-20T07:31:18;5.80;;;3.50;;
70970;SDS011;58632;51.718;19.446;2023-07-20T07:33:46;7.90;;;3.70;;
70970;SDS011;58632;51.718;19.446;2023-07-20T07:36:12;8.10;;;3.70;;
70970;SDS011;58632;51.718;19.446;2023-07-20T07:38:37;7.40;;;3.80;;
70970;SDS011;58632;51.718;19.446;2023-07-20T07:41:03;5.50;;;3.60;;
70970;SDS011;58632;51.718;19.446;2023-07-20T07:43:29;9.10;;;3.80;;
70970;SDS011;58632;51.718;19.446;2023-07-20T07:45:54;7.00;;;3.90;;
70970;SDS011;58632;51.718;19.446;2023-07-20T07:48:22;7.10;;;3.80;;
70970;SDS011;58632;51.718;19.446;2023-07-20T07:50:50;6.40;;;4.10;;
70970;SDS011;58632;51.718;19.446;2023-07-20T07:53:16;7.40;;;4.10;;
70970;SDS011;58632;51.718;19.446;2023-07-20T07:55:42;6.90;;;3.50;;
70970;SDS011;58632;51.718;19.446;2023-07-20T07:58:07;8.00;;;3.40;;
70970;SDS011;58632;51.718;19.446;2023-07-20T08:00:33;6.30;;;3.40;;
70970;SDS011;58632;51.718;19.446;2023-07-20T08:02:59;6.90;;;3.30;;
70970;SDS011;58632;51.718;19.446;2023-07-20T08:05:25;5.20;;;3.20;;
70970;SDS011;58632;51.718;19.446;2023-07-20T08:07:51;9.50;;;3.50;;
70970;SDS011;58632;51.718;19.446;2023-07-20T08:10:18;8.80;;;3.60;;
70970;SDS011;58632;51.718;19.446;2023-07-20T08:12:43;6.30;;;3.30;;
70970;SDS011;58632;51.718;19.446;2023-07-20T08:15:10;5.90;;;3.20;;
70970;SDS011;58632;51.718;19.446;2023-07-20T08:17:37;7.80;;;3.70;;
70970;SDS011;58632;51.718;19.446;2023-07-20T08:20:03;6.50;;;3.80;;
70970;SDS011;58632;51.718;19.446;2023-07-20T08:22:31;7.00;;;3.70;;
70970;SDS011;58632;51.718;19.446;2023-07-20T08:24:56;6.90;;;3.40;;
70970;SDS011;58632;51.718;19.446;2023-07-20T08:27:22;6.00;;;3.50;;
70970;SDS011;58632;51.718;19.446;2023-07-20T08:29:47;6.10;;;3.70;;
70970;SDS011;58632;51.718;19.446;2023-07-20T08:32:13;5.60;;;3.10;;
70970;SDS011;58632;51.718;19.446;2023-07-20T08:34:41;7.30;;;3.40;;
70970;SDS011;58632;51.718;19.446;2023-07-20T08:37:09;5.40;;;2.80;;
70970;SDS011;58632;51.718;19.446;2023-07-20T08:39:37;5.00;;;3.20;;
70970;SDS011;58632;51.718;19.446;2023-07-20T08:42:03;7.40;;;3.90;;
70970;SDS011;58632;51.718;19.446;2023-07-20T08:44:34;4.80;;;3.50;;
70970;SDS011;58632;51.718;19.446;2023-07-20T08:47:01;5.20;;;3.40;;
70970;SDS011;58632;51.718;19.446;2023-07-20T08:49:29;7.60;;;3.50;;
70970;SDS011;58632;51.718;19.446;2023-07-20T08:51:56;6.90;;;3.40;;
70970;SDS011;58632;51.718;19.446;2023-07-20T08:54:23;5.60;;;3.30;;
70970;SDS011;58632;51.718;19.446;2023-07-20T08:56:52;6.40;;;3.00;;
70970;SDS011;58632;51.718;19.446;2023-07-20T08:59:21;5.00;;;2.80;;
70970;SDS011;58632;51.718;19.446;2023-07-20T09:01:50;4.60;;;2.90;;
70970;SDS011;58632;51.718;19.446;2023-07-20T09:04:19;5.10;;;3.10;;
70970;SDS011;58632;51.718;19.446;2023-07-20T09:06:44;5.30;;;2.90;;
70970;SDS011;58632;51.718;19.446;2023-07-20T09:09:10;6.20;;;3.00;;
70970;SDS011;58632;51.718;19.446;2023-07-20T09:11:38;5.20;;;2.70;;
70970;SDS011;58632;51.718;19.446;2023-07-20T09:14:06;4.60;;;3.00;;
70970;SDS011;58632;51.718;19.446;2023-07-20T09:16:38;6.00;;;2.80;;
70970;SDS011;58632;51.718;19.446;2023-07-20T09:19:15;4.20;;;2.90;;
70970;SDS011;58632;51.718;19.446;2023-07-20T09:21:43;3.80;;;2.80;;
70970;SDS011;58632;51.718;19.446;2023-07-20T09:24:12;5.70;;;2.70;;
70970;SDS011;58632;51.718;19.446;2023-07-20T09:26:42;4.70;;;2.30;;
70970;SDS011;58632;51.718;19.446;2023-07-20T09:29:08;5.30;;;2.30;;
70970;SDS011;58632;51.718;19.446;2023-07-20T09:31:35;6.70;;;2.80;;
70970;SDS011;58632;51.718;19.446;2023-07-20T09:34:01;3.70;;;2.40;;
70970;SDS011;58632;51.718;19.446;2023-07-20T09:36:27;3.90;;;2.20;;
70970;SDS011;58632;51.718;19.446;2023-07-20T09:38:53;3.80;;;2.00;;
70970;SDS011;58632;51.718;19.446;2023-07-20T09:41:19;2.60;;;1.60;;
70970;SDS011;58632;51.718;19.446;2023-07-20T09:43:45;5.00;;;2.00;;
70970;SDS011;58632;51.718;19.446;2023-07-20T09:46:11;3.70;;;2.00;;
70970;SDS011;58632;51.718;19.446;2023-07-20T09:48:36;4.30;;;1.90;;
70970;SDS011;58632;51.718;19.446;2023-07-20T09:51:02;3.50;;;2.10;;
70970;SDS011;58632;51.718;19.446;2023-07-20T09:53:30;3.70;;;2.20;;
70970;SDS011;58632;51.718;19.446;2023-07-20T09:55:58;5.40;;;2.00;;
70970;SDS011;58632;51.718;19.446;2023-07-20T10:00:51;3.50;;;2.00;;
70970;SDS011;58632;51.718;19.446;2023-07-20T10:03:18;3.40;;;1.90;;
70970;SDS011;58632;51.718;19.446;2023-07-20T10:05:51;4.40;;;2.20;;
70970;SDS011;58632;51.718;19.446;2023-07-20T10:08:23;3.10;;;1.80;;
70970;SDS011;58632;51.718;19.446;2023-07-20T10:10:50;3.60;;;1.80;;
70970;SDS011;58632;51.718;19.446;2023-07-20T10:13:25;3.70;;;1.70;;
70970;SDS011;58632;51.718;19.446;2023-07-20T10:15:58;3.20;;;2.00;;
70970;SDS011;58632;51.718;19.446;2023-07-20T10:20:55;3.20;;;1.80;;
70970;SDS011;58632;51.718;19.446;2023-07-20T10:23:23;3.50;;;1.90;;
70970;SDS011;58632;51.718;19.446;2023-07-20T10:25:49;4.80;;;2.20;;
70970;SDS011;58632;51.718;19.446;2023-07-20T10:28:15;2.40;;;1.50;;
70970;SDS011;58632;51.718;19.446;2023-07-20T10:30:41;3.10;;;2.30;;
70970;SDS011;58632;51.718;19.446;2023-07-20T10:33:08;5.30;;;2.20;;
70970;SDS011;58632;51.718;19.446;2023-07-20T10:38:18;4.30;;;1.70;;
70970;SDS011;58632;51.718;19.446;2023-07-20T10:40:43;3.10;;;1.90;;
70970;SDS011;58632;51.718;19.446;2023-07-20T10:43:22;3.00;;;1.50;;
70970;SDS011;58632;51.718;19.446;2023-07-20T10:45:49;3.00;;;1.70;;
70970;SDS011;58632;51.718;19.446;2023-07-20T10:48:22;3.90;;;1.60;;
70970;SDS011;58632;51.718;19.446;2023-07-20T10:53:44;3.60;;;1.60;;
70970;SDS011;58632;51.718;19.446;2023-07-20T10:56:14;3.00;;;1.60;;
70970;SDS011;58632;51.718;19.446;2023-07-20T10:58:40;3.20;;;1.70;;
70970;SDS011;58632;51.718;19.446;2023-07-20T11:01:07;2.40;;;1.60;;
70970;SDS011;58632;51.718;19.446;2023-07-20T11:03:37;3.40;;;1.50;;
70970;SDS011;58632;51.718;19.446;2023-07-20T11:11:28;4.10;;;1.80;;
70970;SDS011;58632;51.718;19.446;2023-07-20T11:16:38;2.60;;;1.60;;
70970;SDS011;58632;51.718;19.446;2023-07-20T11:21:49;4.70;;;2.10;;
70970;SDS011;58632;51.718;19.446;2023-07-20T11:24:16;8.20;;;2.70;;
70970;SDS011;58632;51.718;19.446;2023-07-20T11:26:43;5.40;;;2.30;;
70970;SDS011;58632;51.718;19.446;2023-07-20T11:29:11;4.40;;;2.00;;
70970;SDS011;58632;51.718;19.446;2023-07-20T11:31:38;6.40;;;3.00;;
70970;SDS011;58632;51.718;19.446;2023-07-20T11:34:05;7.40;;;3.20;;
70970;SDS011;58632;51.718;19.446;2023-07-20T11:36:33;5.10;;;2.70;;
70970;SDS011;58632;51.718;19.446;2023-07-20T11:38:59;3.70;;;2.40;;
70970;SDS011;58632;51.718;19.446;2023-07-20T11:41:25;4.30;;;3.00;;
70970;SDS011;58632;51.718;19.446;2023-07-20T11:43:52;6.30;;;2.80;;
70970;SDS011;58632;51.718;19.446;2023-07-20T11:46:18;5.00;;;3.00;;
70970;SDS011;58632;51.718;19.446;2023-07-20T11:48:44;4.90;;;3.20;;
70970;SDS011;58632;51.718;19.446;2023-07-20T11:51:13;3.80;;;2.00;;
70970;SDS011;58632;51.718;19.446;2023-07-20T11:53:45;3.90;;;1.80;;
70970;SDS011;58632;51.718;19.446;2023-07-20T11:56:12;1.80;;;1.30;;
70970;SDS011;58632;51.718;19.446;2023-07-20T11:58:43;2.80;;;1.40;;
70970;SDS011;58632;51.718;19.446;2023-07-20T12:01:10;3.40;;;1.70;;
70970;SDS011;58632;51.718;19.446;2023-07-20T12:03:37;2.10;;;1.60;;
70970;SDS011;58632;51.718;19.446;2023-07-20T12:06:06;3.10;;;1.80;;
70970;SDS011;58632;51.718;19.446;2023-07-20T12:08:37;4.20;;;1.70;;
70970;SDS011;58632;51.718;19.446;2023-07-20T12:11:04;4.00;;;1.60;;
70970;SDS011;58632;51.718;19.446;2023-07-20T12:13:42;3.20;;;1.40;;
70970;SDS011;58632;51.718;19.446;2023-07-20T12:16:12;1.70;;;1.30;;
70970;SDS011;58632;51.718;19.446;2023-07-20T12:18:40;4.40;;;1.30;;
70970;SDS011;58632;51.718;19.446;2023-07-20T12:21:07;4.90;;;1.40;;
70970;SDS011;58632;51.718;19.446;2023-07-20T12:23:40;2.40;;;1.30;;
70970;SDS011;58632;51.718;19.446;2023-07-20T12:26:08;6.90;;;1.30;;
70970;SDS011;58632;51.718;19.446;2023-07-20T12:28:38;3.00;;;1.00;;
70970;SDS011;58632;51.718;19.446;2023-07-20T12:31:08;1.80;;;1.00;;
70970;SDS011;58632;51.718;19.446;2023-07-20T12:33:37;2.60;;;0.90;;
70970;SDS011;58632;51.718;19.446;2023-07-20T12:36:03;1.20;;;1.00;;
70970;SDS011;58632;51.718;19.446;2023-07-20T12:38:29;1.40;;;1.00;;
70970;SDS011;58632;51.718;19.446;2023-07-20T12:40:57;2.00;;;1.00;;
70970;SDS011;58632;51.718;19.446;2023-07-20T12:43:23;1.80;;;0.90;;
70970;SDS011;58632;51.718;19.446;2023-07-20T12:45:49;2.00;;;1.00;;
70970;SDS011;58632;51.718;19.446;2023-07-20T12:48:15;1.40;;;1.10;;
70970;SDS011;58632;51.718;19.446;2023-07-20T12:50:41;2.80;;;1.20;;
70970;SDS011;58632;51.718;19.446;2023-07-20T12:53:06;1.70;;;1.00;;
70970;SDS011;58632;51.718;19.446;2023-07-20T12:57:58;3.20;;;1.40;;
70970;SDS011;58632;51.718;19.446;2023-07-20T13:00:23;1.60;;;1.30;;
70970;SDS011;58632;51.718;19.446;2023-07-20T13:02:50;2.20;;;1.30;;
70970;SDS011;58632;51.718;19.446;2023-07-20T13:05:16;1.20;;;0.60;;
70970;SDS011;58632;51.718;19.446;2023-07-20T13:07:41;2.40;;;0.70;;
70970;SDS011;58632;51.718;19.446;2023-07-20T13:10:08;1.20;;;0.60;;
70970;SDS011;58632;51.718;19.446;2023-07-20T13:12:35;2.30;;;0.70;;
70970;SDS011;58632;51.718;19.446;2023-07-20T13:15:02;2.00;;;0.60;;
70970;SDS011;58632;51.718;19.446;2023-07-20T13:17:38;2.10;;;0.70;;
70970;SDS011;58632;51.718;19.446;2023-07-20T13:20:04;4.70;;;1.00;;
70970;SDS011;58632;51.718;19.446;2023-07-20T13:22:31;4.40;;;0.90;;
70970;SDS011;58632;51.718;19.446;2023-07-20T13:24:57;2.40;;;0.80;;
70970;SDS011;58632;51.718;19.446;2023-07-20T13:27:23;2.50;;;1.20;;
70970;SDS011;58632;51.718;19.446;2023-07-20T13:29:50;4.90;;;1.10;;
70970;SDS011;58632;51.718;19.446;2023-07-20T13:32:16;4.20;;;1.20;;
70970;SDS011;58632;51.718;19.446;2023-07-20T13:37:11;3.90;;;1.10;;
70970;SDS011;58632;51.718;19.446;2023-07-20T13:39:38;1.00;;;0.90;;
70970;SDS011;58632;51.718;19.446;2023-07-20T13:42:06;2.80;;;1.00;;
70970;SDS011;58632;51.718;19.446;2023-07-20T13:44:31;2.10;;;0.90;;
70970;SDS011;58632;51.718;19.446;2023-07-20T13:46:57;2.80;;;0.90;;
70970;SDS011;58632;51.718;19.446;2023-07-20T13:49:23;1.30;;;0.80;;
70970;SDS011;58632;51.718;19.446;2023-07-20T13:51:49;2.30;;;0.80;;
70970;SDS011;58632;51.718;19.446;2023-07-20T13:54:15;2.50;;;0.70;;
70970;SDS011;58632;51.718;19.446;2023-07-20T13:56:40;2.40;;;0.80;;
70970;SDS011;58632;51.718;19.446;2023-07-20T13:59:06;2.20;;;0.80;;
70970;SDS011;58632;51.718;19.446;2023-07-20T14:01:32;1.60;;;0.80;;
70970;SDS011;58632;51.718;19.446;2023-07-20T14:03:59;1.70;;;0.90;;
70970;SDS011;58632;51.718;19.446;2023-07-20T14:06:29;2.30;;;1.00;;
70970;SDS011;58632;51.718;19.446;2023-07-20T14:08:56;2.40;;;0.90;;
70970;SDS011;58632;51.718;19.446;2023-07-20T14:11:22;1.00;;;0.70;;
70970;SDS011;58632;51.718;19.446;2023-07-20T14:13:48;2.20;;;0.80;;
70970;SDS011;58632;51.718;19.446;2023-07-20T14:18:40;1.50;;;0.80;;
70970;SDS011;58632;51.718;19.446;2023-07-20T14:21:06;1.40;;;0.80;;
70970;SDS011;58632;51.718;19.446;2023-07-20T14:23:31;1.20;;;0.90;;
70970;SDS011;58632;51.718;19.446;2023-07-20T14:25:57;2.50;;;0.70;;
70970;SDS011;58632;51.718;19.446;2023-07-20T14:28:23;1.50;;;0.70;;
70970;SDS011;58632;51.718;19.446;2023-07-20T14:30:49;3.90;;;0.90;;
70970;SDS011;58632;51.718;19.446;2023-07-20T14:33:15;2.60;;;0.80;;
70970;SDS011;58632;51.718;19.446;2023-07-20T14:35:40;2.60;;;0.80;;
70970;SDS011;58632;51.718;19.446;2023-07-20T14:38:06;1.40;;;0.90;;
70970;SDS011;58632;51.718;19.446;2023-07-20T14:40:31;1.00;;;0.70;;
70970;SDS011;58632;51.718;19.446;2023-07-20T14:42:57;1.50;;;0.80;;
70970;SDS011;58632;51.718;19.446;2023-07-20T14:45:28;1.40;;;0.80;;
70970;SDS011;58632;51.718;19.446;2023-07-20T14:47:54;1.20;;;0.80;;
70970;SDS011;58632;51.718;19.446;2023-07-20T14:50:20;9.50;;;7.70;;
70970;SDS011;58632;51.718;19.446;2023-07-20T14:52:45;2.90;;;1.00;;
70970;SDS011;58632;51.718;19.446;2023-07-20T14:55:11;2.00;;;1.00;;
70970;SDS011;58632;51.718;19.446;2023-07-20T14:57:37;3.60;;;0.90;;
70970;SDS011;58632;51.718;19.446;2023-07-20T15:00:04;2.80;;;0.70;;
70970;SDS011;58632;51.718;19.446;2023-07-20T15:02:36;2.40;;;1.00;;
70970;SDS011;58632;51.718;19.446;2023-07-20T15:07:28;1.30;;;0.70;;
70970;SDS011;58632;51.718;19.446;2023-07-20T15:09:53;1.80;;;0.70;;
70970;SDS011;58632;51.718;19.446;2023-07-20T15:12:19;1.70;;;0.70;;
70970;SDS011;58632;51.718;19.446;2023-07-20T15:14:49;1.20;;;0.60;;
70970;SDS011;58632;51.718;19.446;2023-07-20T15:17:34;1.30;;;0.60;;
70970;SDS011;58632;51.718;19.446;2023-07-20T15:20:01;1.40;;;0.50;;
70970;SDS011;58632;51.718;19.446;2023-07-20T15:22:30;1.00;;;0.60;;
70970;SDS011;58632;51.718;19.446;2023-07-20T15:24:59;1.70;;;0.70;;
70970;SDS011;58632;51.718;19.446;2023-07-20T15:27:25;0.70;;;0.60;;
70970;SDS011;58632;51.718;19.446;2023-07-20T15:29:51;0.70;;;0.50;;
70970;SDS011;58632;51.718;19.446;2023-07-20T15:32:17;1.60;;;0.60;;
70970;SDS011;58632;51.718;19.446;2023-07-20T15:37:09;0.80;;;0.70;;
70970;SDS011;58632;51.718;19.446;2023-07-20T15:42:01;1.40;;;0.80;;